首页
METAR-TAF:

METAR-TAF

机场 :

Altenstadt, 德国

纬度: 47-50N, 经度: 010-52E, 海拔: 739米

当前天气观测

该预报发布于1小时和5分钟前的05:20 UTC
静风
温度 -1°C
湿度 93%
气压 1014 hPa
能见度10公里或以上
少量云层高于10000英尺
散云层高于20000英尺

METAR: ETHA 190520Z 00000KT 9999 FEW100 SCT200 M01/M02 Q1014 BLU+BLU+ TEMPO BLU

时间: 07:25 (06:25 UTC)

预报

该预报发布于1小时和5分钟前的05:20 UTC
预报有效从19日的 06点(UTC)到 19日的 15点(UTC)
风速5节,风向东转东北
能见度10公里或以上
少量云层高于12000英尺
多云层高于20000英尺
短暂存在
从 19日的 09点(UTC)到 19日的 15点(UTC)
风速7节,风向东北
能见度10公里或以上
散云层高于1500英尺
多云层高于15000英尺
几率 30%
从 19日的 11点(UTC)到 19日的 15点(UTC)
风速8节,风向北转东北
能見度: 8000
多云层高于1200英尺

TAF: ETHA 190520Z 1906/1915 06005KT 9999 NSW FEW120 BKN200 TEMPO 1909/1915 04007KT 9999 NSW SCT015 BKN150 PROB30 1911/1915 02008KT 8000 NSW BKN012

超过4000个机场的气象观测和天气预报(METAR&TAF报告)。

可查询的气象台以黄色和红色小点在地图上表示。

将鼠标移到小点上方,可查看气象台名称。

然后点击查看天气观测和预报。

如需切换地图:点击带黑十字的绿色按钮放大地图;点击带横线的绿色按钮缩小地图;或者点击绿色箭头查看邻近地区的地图。


METAR-TAF: